sensor_id;sensor_type;location;lat;lon;timestamp;P1;durP1;ratioP1;P2;durP2;ratioP2
78887;SDS011;68276;49.326;8.690;2023-03-23T00:01:17;5.18;;;1.00;;
78887;SDS011;68276;49.326;8.690;2023-03-23T00:03:45;3.67;;;1.00;;
78887;SDS011;68276;49.326;8.690;2023-03-23T00:06:14;4.75;;;0.95;;
78887;SDS011;68276;49.326;8.690;2023-03-23T00:08:42;2.67;;;1.00;;
78887;SDS011;68276;49.326;8.690;2023-03-23T00:11:13;3.00;;;0.98;;
78887;SDS011;68276;49.326;8.690;2023-03-23T00:13:40;3.35;;;0.90;;
78887;SDS011;68276;49.326;8.690;2023-03-23T00:16:09;3.97;;;1.00;;
78887;SDS011;68276;49.326;8.690;2023-03-23T00:18:45;4.43;;;1.10;;
78887;SDS011;68276;49.326;8.690;2023-03-23T00:21:11;3.65;;;1.10;;
78887;SDS011;68276;49.326;8.690;2023-03-23T00:23:37;2.33;;;0.85;;
78887;SDS011;68276;49.326;8.690;2023-03-23T00:26:04;3.58;;;1.00;;
78887;SDS011;68276;49.326;8.690;2023-03-23T00:28:30;4.05;;;0.90;;
78887;SDS011;68276;49.326;8.690;2023-03-23T00:33:21;1.80;;;0.60;;
78887;SDS011;68276;49.326;8.690;2023-03-23T00:35:48;2.60;;;0.90;;
78887;SDS011;68276;49.326;8.690;2023-03-23T00:38:17;3.65;;;0.90;;
78887;SDS011;68276;49.326;8.690;2023-03-23T00:40:43;2.25;;;0.68;;
78887;SDS011;68276;49.326;8.690;2023-03-23T00:43:08;2.40;;;0.90;;
78887;SDS011;68276;49.326;8.690;2023-03-23T00:45:38;3.10;;;0.70;;
78887;SDS011;68276;49.326;8.690;2023-03-23T00:48:04;3.93;;;0.83;;
78887;SDS011;68276;49.326;8.690;2023-03-23T00:50:30;2.53;;;0.98;;
78887;SDS011;68276;49.326;8.690;2023-03-23T00:55:21;2.90;;;0.77;;
78887;SDS011;68276;49.326;8.690;2023-03-23T00:57:47;5.22;;;0.90;;
78887;SDS011;68276;49.326;8.690;2023-03-23T01:00:15;2.88;;;0.70;;
78887;SDS011;68276;49.326;8.690;2023-03-23T01:02:41;3.30;;;1.00;;
78887;SDS011;68276;49.326;8.690;2023-03-23T01:05:09;2.65;;;0.63;;
78887;SDS011;68276;49.326;8.690;2023-03-23T01:07:35;2.88;;;0.90;;
78887;SDS011;68276;49.326;8.690;2023-03-23T01:10:02;3.30;;;1.02;;
78887;SDS011;68276;49.326;8.690;2023-03-23T01:12:29;1.92;;;0.55;;
78887;SDS011;68276;49.326;8.690;2023-03-23T01:14:54;2.60;;;0.73;;
78887;SDS011;68276;49.326;8.690;2023-03-23T01:17:20;3.58;;;0.88;;
78887;SDS011;68276;49.326;8.690;2023-03-23T01:19:45;1.90;;;0.70;;
78887;SDS011;68276;49.326;8.690;2023-03-23T01:22:11;2.75;;;0.70;;
78887;SDS011;68276;49.326;8.690;2023-03-23T01:24:37;2.65;;;0.80;;
78887;SDS011;68276;49.326;8.690;2023-03-23T01:27:02;1.53;;;0.70;;
78887;SDS011;68276;49.326;8.690;2023-03-23T01:29:32;3.85;;;1.00;;
78887;SDS011;68276;49.326;8.690;2023-03-23T01:31:58;1.73;;;0.73;;
78887;SDS011;68276;49.326;8.690;2023-03-23T01:34:23;3.27;;;0.83;;
78887;SDS011;68276;49.326;8.690;2023-03-23T01:36:49;3.08;;;0.80;;
78887;SDS011;68276;49.326;8.690;2023-03-23T01:39:15;3.22;;;0.90;;
78887;SDS011;68276;49.326;8.690;2023-03-23T01:41:40;3.93;;;0.83;;
78887;SDS011;68276;49.326;8.690;2023-03-23T01:46:40;4.13;;;1.00;;
78887;SDS011;68276;49.326;8.690;2023-03-23T01:49:07;4.63;;;1.00;;
78887;SDS011;68276;49.326;8.690;2023-03-23T01:52:00;4.68;;;1.10;;
78887;SDS011;68276;49.326;8.690;2023-03-23T01:54:31;3.60;;;1.30;;
78887;SDS011;68276;49.326;8.690;2023-03-23T01:57:02;6.38;;;1.00;;
78887;SDS011;68276;49.326;8.690;2023-03-23T01:59:31;5.35;;;1.15;;
78887;SDS011;68276;49.326;8.690;2023-03-23T02:01:58;4.90;;;1.00;;
78887;SDS011;68276;49.326;8.690;2023-03-23T02:04:25;3.92;;;0.90;;
78887;SDS011;68276;49.326;8.690;2023-03-23T02:06:52;5.97;;;1.63;;
78887;SDS011;68276;49.326;8.690;2023-03-23T02:09:19;5.13;;;1.30;;
78887;SDS011;68276;49.326;8.690;2023-03-23T02:11:46;2.22;;;0.70;;
78887;SDS011;68276;49.326;8.690;2023-03-23T02:14:14;4.07;;;0.88;;
78887;SDS011;68276;49.326;8.690;2023-03-23T02:33:50;3.73;;;1.00;;
78887;SDS011;68276;49.326;8.690;2023-03-23T02:36:39;2.42;;;0.80;;
78887;SDS011;68276;49.326;8.690;2023-03-23T02:39:24;2.60;;;0.73;;
78887;SDS011;68276;49.326;8.690;2023-03-23T02:41:56;2.65;;;0.77;;
78887;SDS011;68276;49.326;8.690;2023-03-23T02:44:26;1.55;;;0.70;;
78887;SDS011;68276;49.326;8.690;2023-03-23T02:46:55;3.30;;;0.95;;
78887;SDS011;68276;49.326;8.690;2023-03-23T02:49:22;3.30;;;0.80;;
78887;SDS011;68276;49.326;8.690;2023-03-23T02:51:50;3.00;;;1.23;;
78887;SDS011;68276;49.326;8.690;2023-03-23T02:54:16;2.47;;;0.80;;
78887;SDS011;68276;49.326;8.690;2023-03-23T02:56:45;2.03;;;0.75;;
78887;SDS011;68276;49.326;8.690;2023-03-23T02:59:12;3.53;;;0.73;;
78887;SDS011;68276;49.326;8.690;2023-03-23T03:04:07;4.67;;;1.17;;
78887;SDS011;68276;49.326;8.690;2023-03-23T03:06:47;4.43;;;1.20;;
78887;SDS011;68276;49.326;8.690;2023-03-23T03:17:44;5.85;;;1.30;;
78887;SDS011;68276;49.326;8.690;2023-03-23T03:20:16;5.30;;;1.30;;
78887;SDS011;68276;49.326;8.690;2023-03-23T03:22:42;3.72;;;1.02;;
78887;SDS011;68276;49.326;8.690;2023-03-23T03:25:10;2.65;;;0.90;;
78887;SDS011;68276;49.326;8.690;2023-03-23T03:27:40;4.70;;;1.10;;
78887;SDS011;68276;49.326;8.690;2023-03-23T03:30:09;3.50;;;0.98;;
78887;SDS011;68276;49.326;8.690;2023-03-23T03:32:44;3.85;;;1.30;;
78887;SDS011;68276;49.326;8.690;2023-03-23T03:35:18;3.20;;;0.93;;
78887;SDS011;68276;49.326;8.690;2023-03-23T03:37:45;3.33;;;1.05;;
78887;SDS011;68276;49.326;8.690;2023-03-23T03:40:13;3.35;;;1.00;;
78887;SDS011;68276;49.326;8.690;2023-03-23T03:42:41;3.97;;;0.95;;
78887;SDS011;68276;49.326;8.690;2023-03-23T03:45:09;3.50;;;1.00;;
78887;SDS011;68276;49.326;8.690;2023-03-23T03:47:35;2.30;;;0.80;;
78887;SDS011;68276;49.326;8.690;2023-03-23T03:50:01;2.88;;;1.00;;
78887;SDS011;68276;49.326;8.690;2023-03-23T03:52:26;3.28;;;0.77;;
78887;SDS011;68276;49.326;8.690;2023-03-23T03:54:52;3.08;;;0.80;;
78887;SDS011;68276;49.326;8.690;2023-03-23T03:57:18;4.55;;;1.10;;
78887;SDS011;68276;49.326;8.690;2023-03-23T03:59:44;2.95;;;1.00;;
78887;SDS011;68276;49.326;8.690;2023-03-23T04:02:10;4.03;;;1.00;;
78887;SDS011;68276;49.326;8.690;2023-03-23T04:04:38;2.78;;;1.10;;
78887;SDS011;68276;49.326;8.690;2023-03-23T04:07:04;3.22;;;0.90;;
78887;SDS011;68276;49.326;8.690;2023-03-23T04:09:30;3.83;;;1.15;;
78887;SDS011;68276;49.326;8.690;2023-03-23T04:11:56;2.80;;;0.93;;
78887;SDS011;68276;49.326;8.690;2023-03-23T04:14:21;3.13;;;0.98;;
78887;SDS011;68276;49.326;8.690;2023-03-23T04:16:47;3.00;;;0.90;;
78887;SDS011;68276;49.326;8.690;2023-03-23T04:19:12;2.58;;;1.02;;
78887;SDS011;68276;49.326;8.690;2023-03-23T04:21:37;4.70;;;1.00;;
78887;SDS011;68276;49.326;8.690;2023-03-23T04:24:03;3.97;;;1.00;;
78887;SDS011;68276;49.326;8.690;2023-03-23T04:26:28;4.57;;;1.20;;
78887;SDS011;68276;49.326;8.690;2023-03-23T04:28:54;4.77;;;1.20;;
78887;SDS011;68276;49.326;8.690;2023-03-23T04:31:21;3.58;;;1.02;;
78887;SDS011;68276;49.326;8.690;2023-03-23T04:33:49;4.88;;;1.20;;
78887;SDS011;68276;49.326;8.690;2023-03-23T04:36:17;5.85;;;1.20;;
78887;SDS011;68276;49.326;8.690;2023-03-23T04:41:08;6.17;;;1.30;;
78887;SDS011;68276;49.326;8.690;2023-03-23T04:43:34;4.35;;;1.10;;
78887;SDS011;68276;49.326;8.690;2023-03-23T04:46:06;3.60;;;1.17;;
78887;SDS011;68276;49.326;8.690;2023-03-23T04:48:33;3.55;;;1.15;;
78887;SDS011;68276;49.326;8.690;2023-03-23T04:51:00;5.53;;;1.48;;
78887;SDS011;68276;49.326;8.690;2023-03-23T04:53:28;4.53;;;1.05;;
78887;SDS011;68276;49.326;8.690;2023-03-23T04:55:54;3.63;;;1.10;;
78887;SDS011;68276;49.326;8.690;2023-03-23T04:58:19;4.27;;;1.10;;
78887;SDS011;68276;49.326;8.690;2023-03-23T05:00:45;3.28;;;1.13;;
78887;SDS011;68276;49.326;8.690;2023-03-23T05:03:15;3.42;;;1.10;;
78887;SDS011;68276;49.326;8.690;2023-03-23T05:05:43;4.22;;;1.30;;
78887;SDS011;68276;49.326;8.690;2023-03-23T05:08:12;4.30;;;1.20;;
78887;SDS011;68276;49.326;8.690;2023-03-23T05:10:38;5.65;;;1.30;;
78887;SDS011;68276;49.326;8.690;2023-03-23T05:13:04;4.82;;;1.27;;
78887;SDS011;68276;49.326;8.690;2023-03-23T05:15:29;4.07;;;1.13;;
78887;SDS011;68276;49.326;8.690;2023-03-23T05:17:55;6.03;;;1.40;;
78887;SDS011;68276;49.326;8.690;2023-03-23T05:20:21;3.72;;;1.00;;
78887;SDS011;68276;49.326;8.690;2023-03-23T05:22:47;4.30;;;1.30;;
78887;SDS011;68276;49.326;8.690;2023-03-23T05:25:16;6.28;;;1.30;;
78887;SDS011;68276;49.326;8.690;2023-03-23T05:27:45;4.05;;;1.10;;
78887;SDS011;68276;49.326;8.690;2023-03-23T05:30:17;6.07;;;1.65;;
78887;SDS011;68276;49.326;8.690;2023-03-23T05:32:43;3.55;;;1.13;;
78887;SDS011;68276;49.326;8.690;2023-03-23T05:35:09;3.22;;;1.10;;
78887;SDS011;68276;49.326;8.690;2023-03-23T05:37:36;5.05;;;1.27;;
78887;SDS011;68276;49.326;8.690;2023-03-23T05:40:02;3.35;;;1.00;;
78887;SDS011;68276;49.326;8.690;2023-03-23T05:42:34;3.92;;;1.20;;
78887;SDS011;68276;49.326;8.690;2023-03-23T05:45:01;4.28;;;1.20;;
78887;SDS011;68276;49.326;8.690;2023-03-23T05:47:28;4.95;;;1.30;;
78887;SDS011;68276;49.326;8.690;2023-03-23T05:49:53;3.60;;;0.90;;
78887;SDS011;68276;49.326;8.690;2023-03-23T05:52:19;4.70;;;1.05;;
78887;SDS011;68276;49.326;8.690;2023-03-23T05:57:11;2.25;;;0.90;;
78887;SDS011;68276;49.326;8.690;2023-03-23T05:59:36;6.00;;;1.10;;
78887;SDS011;68276;49.326;8.690;2023-03-23T06:02:01;4.43;;;1.20;;
78887;SDS011;68276;49.326;8.690;2023-03-23T06:04:27;3.53;;;1.02;;
78887;SDS011;68276;49.326;8.690;2023-03-23T06:06:52;4.05;;;1.15;;
78887;SDS011;68276;49.326;8.690;2023-03-23T06:09:18;3.13;;;0.90;;
78887;SDS011;68276;49.326;8.690;2023-03-23T06:11:44;4.38;;;1.10;;
78887;SDS011;68276;49.326;8.690;2023-03-23T06:14:11;2.10;;;0.93;;
78887;SDS011;68276;49.326;8.690;2023-03-23T06:16:37;3.70;;;0.98;;
78887;SDS011;68276;49.326;8.690;2023-03-23T06:19:02;4.47;;;0.93;;
78887;SDS011;68276;49.326;8.690;2023-03-23T06:21:29;4.22;;;0.95;;
78887;SDS011;68276;49.326;8.690;2023-03-23T06:23:55;2.72;;;0.85;;
78887;SDS011;68276;49.326;8.690;2023-03-23T06:26:28;3.40;;;0.90;;
78887;SDS011;68276;49.326;8.690;2023-03-23T06:29:04;4.57;;;0.98;;
78887;SDS011;68276;49.326;8.690;2023-03-23T06:31:37;2.65;;;0.80;;
78887;SDS011;68276;49.326;8.690;2023-03-23T06:34:13;3.83;;;1.10;;
78887;SDS011;68276;49.326;8.690;2023-03-23T06:36:39;3.63;;;1.10;;
78887;SDS011;68276;49.326;8.690;2023-03-23T06:39:05;2.58;;;0.90;;
78887;SDS011;68276;49.326;8.690;2023-03-23T06:41:31;3.85;;;1.00;;
78887;SDS011;68276;49.326;8.690;2023-03-23T06:43:57;2.30;;;0.85;;
78887;SDS011;68276;49.326;8.690;2023-03-23T06:46:23;3.63;;;1.05;;
78887;SDS011;68276;49.326;8.690;2023-03-23T06:48:48;3.42;;;0.98;;
78887;SDS011;68276;49.326;8.690;2023-03-23T06:51:15;2.58;;;0.90;;
78887;SDS011;68276;49.326;8.690;2023-03-23T06:53:41;4.75;;;1.10;;
78887;SDS011;68276;49.326;8.690;2023-03-23T06:56:07;3.70;;;0.98;;
78887;SDS011;68276;49.326;8.690;2023-03-23T06:58:32;5.38;;;1.00;;
78887;SDS011;68276;49.326;8.690;2023-03-23T07:00:58;4.93;;;0.93;;
78887;SDS011;68276;49.326;8.690;2023-03-23T07:03:24;3.22;;;0.73;;
78887;SDS011;68276;49.326;8.690;2023-03-23T07:05:51;5.28;;;0.98;;
78887;SDS011;68276;49.326;8.690;2023-03-23T07:08:16;2.28;;;0.65;;
78887;SDS011;68276;49.326;8.690;2023-03-23T07:10:42;3.08;;;0.80;;
78887;SDS011;68276;49.326;8.690;2023-03-23T07:15:33;3.33;;;0.90;;
78887;SDS011;68276;49.326;8.690;2023-03-23T07:17:59;4.33;;;1.03;;
78887;SDS011;68276;49.326;8.690;2023-03-23T07:20:24;2.13;;;0.80;;
78887;SDS011;68276;49.326;8.690;2023-03-23T07:22:50;2.47;;;0.75;;
78887;SDS011;68276;49.326;8.690;2023-03-23T07:25:16;2.15;;;0.82;;
78887;SDS011;68276;49.326;8.690;2023-03-23T07:27:43;3.10;;;0.90;;
78887;SDS011;68276;49.326;8.690;2023-03-23T07:30:10;3.38;;;0.90;;
78887;SDS011;68276;49.326;8.690;2023-03-23T07:32:35;1.75;;;0.68;;
78887;SDS011;68276;49.326;8.690;2023-03-23T07:35:01;2.63;;;0.83;;
78887;SDS011;68276;49.326;8.690;2023-03-23T07:37:26;2.95;;;0.73;;
78887;SDS011;68276;49.326;8.690;2023-03-23T07:39:54;2.65;;;0.80;;
78887;SDS011;68276;49.326;8.690;2023-03-23T07:42:19;2.43;;;0.80;;
78887;SDS011;68276;49.326;8.690;2023-03-23T07:44:44;3.42;;;0.70;;
78887;SDS011;68276;49.326;8.690;2023-03-23T07:47:10;2.95;;;0.90;;
78887;SDS011;68276;49.326;8.690;2023-03-23T07:49:35;3.03;;;0.90;;
78887;SDS011;68276;49.326;8.690;2023-03-23T07:54:27;3.45;;;0.88;;
78887;SDS011;68276;49.326;8.690;2023-03-23T07:56:53;4.88;;;0.93;;
78887;SDS011;68276;49.326;8.690;2023-03-23T07:59:18;3.03;;;0.93;;
78887;SDS011;68276;49.326;8.690;2023-03-23T08:01:43;4.43;;;1.30;;
78887;SDS011;68276;49.326;8.690;2023-03-23T08:04:09;2.63;;;0.90;;
78887;SDS011;68276;49.326;8.690;2023-03-23T08:06:34;5.90;;;1.77;;
78887;SDS011;68276;49.326;8.690;2023-03-23T08:09:01;2.47;;;0.80;;
78887;SDS011;68276;49.326;8.690;2023-03-23T08:11:31;6.75;;;1.52;;
78887;SDS011;68276;49.326;8.690;2023-03-23T08:13:56;5.18;;;1.10;;
78887;SDS011;68276;49.326;8.690;2023-03-23T08:16:22;8.30;;;2.30;;
78887;SDS011;68276;49.326;8.690;2023-03-23T08:18:47;3.65;;;1.05;;
78887;SDS011;68276;49.326;8.690;2023-03-23T08:21:13;6.00;;;1.50;;
78887;SDS011;68276;49.326;8.690;2023-03-23T08:23:38;5.37;;;1.37;;
78887;SDS011;68276;49.326;8.690;2023-03-23T08:26:07;2.65;;;0.75;;
78887;SDS011;68276;49.326;8.690;2023-03-23T08:28:34;5.88;;;1.70;;
78887;SDS011;68276;49.326;8.690;2023-03-23T08:31:00;5.20;;;1.17;;
78887;SDS011;68276;49.326;8.690;2023-03-23T08:33:32;7.45;;;1.92;;
78887;SDS011;68276;49.326;8.690;2023-03-23T08:35:58;2.92;;;0.82;;
78887;SDS011;68276;49.326;8.690;2023-03-23T08:38:26;1.63;;;0.68;;
78887;SDS011;68276;49.326;8.690;2023-03-23T08:40:56;2.95;;;0.80;;
78887;SDS011;68276;49.326;8.690;2023-03-23T08:43:25;2.20;;;0.80;;
78887;SDS011;68276;49.326;8.690;2023-03-23T08:45:52;2.90;;;0.70;;
78887;SDS011;68276;49.326;8.690;2023-03-23T08:48:17;2.40;;;0.70;;
78887;SDS011;68276;49.326;8.690;2023-03-23T08:50:43;3.57;;;0.90;;
78887;SDS011;68276;49.326;8.690;2023-03-23T08:53:10;3.05;;;0.85;;
78887;SDS011;68276;49.326;8.690;2023-03-23T08:55:36;2.65;;;0.90;;
78887;SDS011;68276;49.326;8.690;2023-03-23T08:58:02;1.75;;;0.70;;
78887;SDS011;68276;49.326;8.690;2023-03-23T09:00:28;2.50;;;0.90;;
78887;SDS011;68276;49.326;8.690;2023-03-23T09:02:54;2.97;;;0.90;;
78887;SDS011;68276;49.326;8.690;2023-03-23T09:05:22;2.83;;;0.90;;
78887;SDS011;68276;49.326;8.690;2023-03-23T09:07:50;2.83;;;1.00;;
78887;SDS011;68276;49.326;8.690;2023-03-23T09:10:17;4.78;;;1.08;;
78887;SDS011;68276;49.326;8.690;2023-03-23T09:12:44;3.35;;;0.90;;
78887;SDS011;68276;49.326;8.690;2023-03-23T09:15:12;2.83;;;0.93;;
78887;SDS011;68276;49.326;8.690;2023-03-23T09:17:40;3.60;;;1.15;;
78887;SDS011;68276;49.326;8.690;2023-03-23T09:20:08;3.10;;;0.95;;
78887;SDS011;68276;49.326;8.690;2023-03-23T09:22:36;3.92;;;1.00;;
78887;SDS011;68276;49.326;8.690;2023-03-23T09:25:04;3.00;;;1.00;;
78887;SDS011;68276;49.326;8.690;2023-03-23T09:27:31;3.13;;;1.10;;
78887;SDS011;68276;49.326;8.690;2023-03-23T09:40:23;2.42;;;0.82;;
78887;SDS011;68276;49.326;8.690;2023-03-23T09:49:21;3.22;;;0.95;;
78887;SDS011;68276;49.326;8.690;2023-03-23T09:51:55;4.25;;;0.93;;
78887;SDS011;68276;49.326;8.690;2023-03-23T09:54:41;4.78;;;1.05;;
78887;SDS011;68276;49.326;8.690;2023-03-23T09:57:16;4.10;;;1.17;;
78887;SDS011;68276;49.326;8.690;2023-03-23T10:00:12;2.80;;;1.05;;
78887;SDS011;68276;49.326;8.690;2023-03-23T10:07:43;4.05;;;0.98;;
78887;SDS011;68276;49.326;8.690;2023-03-23T10:10:12;3.47;;;1.00;;
78887;SDS011;68276;49.326;8.690;2023-03-23T10:12:42;4.32;;;0.98;;
78887;SDS011;68276;49.326;8.690;2023-03-23T10:15:23;3.90;;;1.00;;
78887;SDS011;68276;49.326;8.690;2023-03-23T10:17:54;3.67;;;0.80;;
78887;SDS011;68276;49.326;8.690;2023-03-23T10:25:45;3.03;;;0.65;;
78887;SDS011;68276;49.326;8.690;2023-03-23T10:28:21;3.25;;;0.70;;
78887;SDS011;68276;49.326;8.690;2023-03-23T10:30:59;2.72;;;0.77;;
78887;SDS011;68276;49.326;8.690;2023-03-23T10:38:54;3.22;;;1.13;;
78887;SDS011;68276;49.326;8.690;2023-03-23T10:41:20;3.78;;;0.90;;
78887;SDS011;68276;49.326;8.690;2023-03-23T10:43:47;2.80;;;0.80;;
78887;SDS011;68276;49.326;8.690;2023-03-23T10:46:36;2.70;;;0.80;;
78887;SDS011;68276;49.326;8.690;2023-03-23T10:49:15;2.20;;;0.70;;
78887;SDS011;68276;49.326;8.690;2023-03-23T10:51:47;1.25;;;0.70;;
78887;SDS011;68276;49.326;8.690;2023-03-23T10:54:27;3.35;;;0.90;;
78887;SDS011;68276;49.326;8.690;2023-03-23T10:56:58;3.25;;;0.80;;
78887;SDS011;68276;49.326;8.690;2023-03-23T10:59:28;2.53;;;0.88;;
78887;SDS011;68276;49.326;8.690;2023-03-23T11:01:55;2.22;;;0.85;;
78887;SDS011;68276;49.326;8.690;2023-03-23T11:04:23;1.88;;;0.60;;
78887;SDS011;68276;49.326;8.690;2023-03-23T11:06:51;2.53;;;0.90;;
78887;SDS011;68276;49.326;8.690;2023-03-23T11:09:20;3.97;;;0.90;;
78887;SDS011;68276;49.326;8.690;2023-03-23T11:14:27;2.87;;;0.87;;
78887;SDS011;68276;49.326;8.690;2023-03-23T11:16:55;3.55;;;0.80;;
78887;SDS011;68276;49.326;8.690;2023-03-23T11:19:35;2.15;;;0.77;;
78887;SDS011;68276;49.326;8.690;2023-03-23T11:22:15;1.30;;;0.60;;
78887;SDS011;68276;49.326;8.690;2023-03-23T11:24:55;2.97;;;0.90;;
78887;SDS011;68276;49.326;8.690;2023-03-23T11:27:24;2.50;;;0.90;;
78887;SDS011;68276;49.326;8.690;2023-03-23T11:30:00;5.18;;;1.20;;
78887;SDS011;68276;49.326;8.690;2023-03-23T11:32:43;3.38;;;0.98;;
78887;SDS011;68276;49.326;8.690;2023-03-23T11:35:22;1.98;;;0.75;;
78887;SDS011;68276;49.326;8.690;2023-03-23T11:37:52;4.38;;;0.93;;
78887;SDS011;68276;49.326;8.690;2023-03-23T11:40:21;2.45;;;0.70;;
78887;SDS011;68276;49.326;8.690;2023-03-23T11:43:13;3.05;;;1.00;;
78887;SDS011;68276;49.326;8.690;2023-03-23T11:45:45;2.40;;;1.10;;
78887;SDS011;68276;49.326;8.690;2023-03-23T11:48:18;3.08;;;1.00;;
78887;SDS011;68276;49.326;8.690;2023-03-23T11:56:27;4.88;;;1.20;;
78887;SDS011;68276;49.326;8.690;2023-03-23T11:58:59;2.45;;;0.80;;
78887;SDS011;68276;49.326;8.690;2023-03-23T12:07:17;4.43;;;1.00;;
78887;SDS011;68276;49.326;8.690;2023-03-23T12:12:47;2.30;;;0.82;;
78887;SDS011;68276;49.326;8.690;2023-03-23T12:21:33;4.50;;;1.05;;
78887;SDS011;68276;49.326;8.690;2023-03-23T12:35:26;2.88;;;0.90;;
78887;SDS011;68276;49.326;8.690;2023-03-23T12:38:08;2.40;;;0.88;;
78887;SDS011;68276;49.326;8.690;2023-03-23T12:46:05;3.13;;;0.93;;
78887;SDS011;68276;49.326;8.690;2023-03-23T13:02:03;6.78;;;1.05;;
78887;SDS011;68276;49.326;8.690;2023-03-23T13:04:37;3.80;;;1.25;;
78887;SDS011;68276;49.326;8.690;2023-03-23T13:07:06;3.17;;;0.90;;
78887;SDS011;68276;49.326;8.690;2023-03-23T13:12:29;3.55;;;1.00;;
78887;SDS011;68276;49.326;8.690;2023-03-23T13:28:19;4.90;;;1.27;;
78887;SDS011;68276;49.326;8.690;2023-03-23T13:30:58;8.52;;;0.90;;
78887;SDS011;68276;49.326;8.690;2023-03-23T13:33:26;3.55;;;1.10;;
78887;SDS011;68276;49.326;8.690;2023-03-23T13:35:56;3.63;;;1.00;;
78887;SDS011;68276;49.326;8.690;2023-03-23T13:38:23;5.30;;;1.10;;
78887;SDS011;68276;49.326;8.690;2023-03-23T13:40:53;4.70;;;1.10;;
78887;SDS011;68276;49.326;8.690;2023-03-23T13:43:27;2.17;;;0.80;;
78887;SDS011;68276;49.326;8.690;2023-03-23T13:45:54;4.50;;;1.20;;
78887;SDS011;68276;49.326;8.690;2023-03-23T13:48:39;4.15;;;1.05;;
78887;SDS011;68276;49.326;8.690;2023-03-23T13:51:23;4.28;;;0.90;;
78887;SDS011;68276;49.326;8.690;2023-03-23T13:54:03;3.08;;;0.80;;
78887;SDS011;68276;49.326;8.690;2023-03-23T13:56:42;3.25;;;0.70;;
78887;SDS011;68276;49.326;8.690;2023-03-23T14:01:38;3.00;;;0.83;;
78887;SDS011;68276;49.326;8.690;2023-03-23T14:04:07;4.25;;;0.88;;
78887;SDS011;68276;49.326;8.690;2023-03-23T14:06:39;3.60;;;0.90;;
78887;SDS011;68276;49.326;8.690;2023-03-23T14:09:06;2.38;;;0.80;;
78887;SDS011;68276;49.326;8.690;2023-03-23T14:11:45;3.65;;;1.10;;
78887;SDS011;68276;49.326;8.690;2023-03-23T14:14:17;3.00;;;0.90;;
78887;SDS011;68276;49.326;8.690;2023-03-23T14:17:15;3.60;;;1.10;;
78887;SDS011;68276;49.326;8.690;2023-03-23T14:19:44;4.28;;;1.08;;
78887;SDS011;68276;49.326;8.690;2023-03-23T14:22:24;5.70;;;1.15;;
78887;SDS011;68276;49.326;8.690;2023-03-23T14:24:50;5.25;;;1.15;;
78887;SDS011;68276;49.326;8.690;2023-03-23T14:27:17;3.58;;;0.85;;
78887;SDS011;68276;49.326;8.690;2023-03-23T14:29:45;5.03;;;1.10;;
78887;SDS011;68276;49.326;8.690;2023-03-23T14:32:15;3.17;;;0.90;;
78887;SDS011;68276;49.326;8.690;2023-03-23T14:34:43;4.18;;;0.82;;
78887;SDS011;68276;49.326;8.690;2023-03-23T14:37:12;3.42;;;1.05;;
78887;SDS011;68276;49.326;8.690;2023-03-23T14:39:40;3.50;;;1.10;;
78887;SDS011;68276;49.326;8.690;2023-03-23T14:42:11;3.08;;;0.90;;
78887;SDS011;68276;49.326;8.690;2023-03-23T14:44:49;4.85;;;1.30;;
78887;SDS011;68276;49.326;8.690;2023-03-23T14:47:25;7.07;;;1.33;;
78887;SDS011;68276;49.326;8.690;2023-03-23T14:49:55;4.07;;;1.20;;
78887;SDS011;68276;49.326;8.690;2023-03-23T14:52:23;4.22;;;1.30;;
78887;SDS011;68276;49.326;8.690;2023-03-23T14:54:51;4.10;;;1.17;;
78887;SDS011;68276;49.326;8.690;2023-03-23T14:57:27;3.15;;;1.00;;
78887;SDS011;68276;49.326;8.690;2023-03-23T14:59:53;4.10;;;1.10;;
78887;SDS011;68276;49.326;8.690;2023-03-23T15:02:31;8.07;;;0.90;;
78887;SDS011;68276;49.326;8.690;2023-03-23T15:08:02;3.40;;;0.90;;
78887;SDS011;68276;49.326;8.690;2023-03-23T15:10:30;3.35;;;1.00;;
78887;SDS011;68276;49.326;8.690;2023-03-23T15:12:56;4.85;;;1.10;;
78887;SDS011;68276;49.326;8.690;2023-03-23T15:15:27;4.35;;;1.05;;
78887;SDS011;68276;49.326;8.690;2023-03-23T15:17:55;6.93;;;2.00;;
78887;SDS011;68276;49.326;8.690;2023-03-23T15:20:26;6.82;;;1.45;;
78887;SDS011;68276;49.326;8.690;2023-03-23T15:22:54;4.68;;;1.10;;
78887;SDS011;68276;49.326;8.690;2023-03-23T15:25:22;3.92;;;1.15;;
78887;SDS011;68276;49.326;8.690;2023-03-23T15:27:55;3.90;;;1.30;;
78887;SDS011;68276;49.326;8.690;2023-03-23T15:32:49;5.53;;;1.47;;
78887;SDS011;68276;49.326;8.690;2023-03-23T15:35:20;7.00;;;2.22;;
78887;SDS011;68276;49.326;8.690;2023-03-23T15:37:49;7.22;;;2.15;;
78887;SDS011;68276;49.326;8.690;2023-03-23T15:40:19;7.55;;;1.50;;
78887;SDS011;68276;49.326;8.690;2023-03-23T15:42:48;5.57;;;1.60;;
78887;SDS011;68276;49.326;8.690;2023-03-23T15:45:25;9.75;;;2.47;;
78887;SDS011;68276;49.326;8.690;2023-03-23T15:47:52;9.10;;;2.45;;
78887;SDS011;68276;49.326;8.690;2023-03-23T15:50:20;12.10;;;2.92;;
78887;SDS011;68276;49.326;8.690;2023-03-23T15:52:57;13.30;;;3.45;;
78887;SDS011;68276;49.326;8.690;2023-03-23T15:55:25;11.23;;;3.30;;
78887;SDS011;68276;49.326;8.690;2023-03-23T15:58:00;11.88;;;3.33;;
78887;SDS011;68276;49.326;8.690;2023-03-23T16:00:29;9.63;;;3.10;;
78887;SDS011;68276;49.326;8.690;2023-03-23T16:02:56;8.70;;;2.47;;
78887;SDS011;68276;49.326;8.690;2023-03-23T16:05:24;8.43;;;2.40;;
78887;SDS011;68276;49.326;8.690;2023-03-23T16:07:51;6.13;;;1.50;;
78887;SDS011;68276;49.326;8.690;2023-03-23T16:10:18;9.70;;;3.05;;
78887;SDS011;68276;49.326;8.690;2023-03-23T16:12:45;10.60;;;1.80;;
78887;SDS011;68276;49.326;8.690;2023-03-23T16:15:11;3.78;;;1.10;;
78887;SDS011;68276;49.326;8.690;2023-03-23T16:17:38;5.95;;;1.63;;
78887;SDS011;68276;49.326;8.690;2023-03-23T16:20:09;6.40;;;1.20;;
78887;SDS011;68276;49.326;8.690;2023-03-23T16:22:36;6.47;;;1.38;;
78887;SDS011;68276;49.326;8.690;2023-03-23T16:25:02;5.90;;;1.40;;
78887;SDS011;68276;49.326;8.690;2023-03-23T16:27:27;5.35;;;1.30;;
78887;SDS011;68276;49.326;8.690;2023-03-23T16:29:52;8.17;;;1.50;;
78887;SDS011;68276;49.326;8.690;2023-03-23T16:32:18;5.57;;;1.50;;
78887;SDS011;68276;49.326;8.690;2023-03-23T16:34:43;6.57;;;1.53;;
78887;SDS011;68276;49.326;8.690;2023-03-23T16:37:09;6.40;;;1.70;;
78887;SDS011;68276;49.326;8.690;2023-03-23T16:39:35;7.65;;;1.63;;
78887;SDS011;68276;49.326;8.690;2023-03-23T16:42:01;5.50;;;1.30;;
78887;SDS011;68276;49.326;8.690;2023-03-23T16:44:29;5.75;;;1.60;;
78887;SDS011;68276;49.326;8.690;2023-03-23T16:46:54;6.05;;;1.48;;
78887;SDS011;68276;49.326;8.690;2023-03-23T16:49:19;6.28;;;1.60;;
78887;SDS011;68276;49.326;8.690;2023-03-23T16:51:45;5.83;;;1.67;;
78887;SDS011;68276;49.326;8.690;2023-03-23T16:54:12;5.93;;;1.90;;
78887;SDS011;68276;49.326;8.690;2023-03-23T16:56:37;6.57;;;2.00;;
78887;SDS011;68276;49.326;8.690;2023-03-23T16:59:03;6.20;;;1.80;;
78887;SDS011;68276;49.326;8.690;2023-03-23T17:01:28;6.85;;;1.70;;
78887;SDS011;68276;49.326;8.690;2023-03-23T17:03:54;5.60;;;1.60;;
78887;SDS011;68276;49.326;8.690;2023-03-23T17:06:20;6.63;;;1.70;;
78887;SDS011;68276;49.326;8.690;2023-03-23T17:08:45;6.57;;;1.63;;
78887;SDS011;68276;49.326;8.690;2023-03-23T17:11:10;5.70;;;1.70;;
78887;SDS011;68276;49.326;8.690;2023-03-23T17:13:36;5.70;;;1.80;;
78887;SDS011;68276;49.326;8.690;2023-03-23T17:16:02;6.13;;;1.60;;
78887;SDS011;68276;49.326;8.690;2023-03-23T17:18:27;6.55;;;1.92;;
78887;SDS011;68276;49.326;8.690;2023-03-23T17:20:53;6.32;;;1.77;;
78887;SDS011;68276;49.326;8.690;2023-03-23T17:23:19;6.47;;;2.00;;
78887;SDS011;68276;49.326;8.690;2023-03-23T17:25:45;5.93;;;1.77;;
78887;SDS011;68276;49.326;8.690;2023-03-23T17:28:11;6.30;;;1.52;;
78887;SDS011;68276;49.326;8.690;2023-03-23T17:30:38;5.00;;;1.20;;
78887;SDS011;68276;49.326;8.690;2023-03-23T17:33:08;6.45;;;1.50;;